sensor_id;sensor_type;location;lat;lon;timestamp;pressure;altitude;pressure_sealevel;temperature;humidity
76050;BME280;64967;50.234;19.224;2023-04-23T00:01:16;98091.97;;;6.46;81.21
76050;BME280;64967;50.234;19.224;2023-04-23T00:03:56;98098.81;;;6.49;81.63
76050;BME280;64967;50.234;19.224;2023-04-23T00:07:01;98047.56;;;6.14;81.47
76050;BME280;64967;50.234;19.224;2023-04-23T00:09:45;98073.66;;;6.20;81.78
76050;BME280;64967;50.234;19.224;2023-04-23T00:12:34;98094.31;;;6.35;79.98
76050;BME280;64967;50.234;19.224;2023-04-23T00:15:08;98087.81;;;6.29;78.97
76050;BME280;64967;50.234;19.224;2023-04-23T00:17:35;98099.69;;;6.35;80.02
76050;BME280;64967;50.234;19.224;2023-04-23T00:20:02;98087.72;;;6.22;81.75
76050;BME280;64967;50.234;19.224;2023-04-23T00:22:29;98104.56;;;6.31;81.14
76050;BME280;64967;50.234;19.224;2023-04-23T00:24:56;98100.03;;;6.32;80.37
76050;BME280;64967;50.234;19.224;2023-04-23T00:27:23;98099.19;;;6.31;79.23
76050;BME280;64967;50.234;19.224;2023-04-23T00:29:50;98079.31;;;6.25;79.72
76050;BME280;64967;50.234;19.224;2023-04-23T00:32:17;98054.78;;;6.14;80.96
76050;BME280;64967;50.234;19.224;2023-04-23T00:34:44;98080.88;;;6.05;85.88
76050;BME280;64967;50.234;19.224;2023-04-23T00:37:14;98067.97;;;5.86;85.83
76050;BME280;64967;50.234;19.224;2023-04-23T00:39:42;98077.25;;;5.83;86.44
76050;BME280;64967;50.234;19.224;2023-04-23T00:42:09;98079.22;;;5.90;87.49
76050;BME280;64967;50.234;19.224;2023-04-23T00:44:39;98073.09;;;5.96;85.39
76050;BME280;64967;50.234;19.224;2023-04-23T00:47:06;98063.22;;;5.96;82.45
76050;BME280;64967;50.234;19.224;2023-04-23T00:49:34;98068.03;;;6.01;84.34
76050;BME280;64967;50.234;19.224;2023-04-23T00:52:02;98066.06;;;5.95;85.41
76050;BME280;64967;50.234;19.224;2023-04-23T00:54:29;98054.59;;;5.71;86.57
76050;BME280;64967;50.234;19.224;2023-04-23T00:56:57;98070.75;;;5.78;87.25
76050;BME280;64967;50.234;19.224;2023-04-23T00:59:24;98069.84;;;5.71;87.88
76050;BME280;64967;50.234;19.224;2023-04-23T01:01:53;98067.59;;;5.60;88.95
76050;BME280;64967;50.234;19.224;2023-04-23T01:04:33;98038.91;;;5.46;88.49
76050;BME280;64967;50.234;19.224;2023-04-23T01:07:24;98073.78;;;5.60;86.48
76050;BME280;64967;50.234;19.224;2023-04-23T01:10:14;98074.25;;;5.64;85.66
76050;BME280;64967;50.234;19.224;2023-04-23T01:13:04;98081.66;;;5.62;85.62
76050;BME280;64967;50.234;19.224;2023-04-23T01:15:45;98082.84;;;5.59;86.05
76050;BME280;64967;50.234;19.224;2023-04-23T01:18:28;98082.38;;;5.56;85.68
76050;BME280;64967;50.234;19.224;2023-04-23T01:20:56;98085.34;;;5.61;85.00
76050;BME280;64967;50.234;19.224;2023-04-23T01:23:23;98086.56;;;5.58;82.94
76050;BME280;64967;50.234;19.224;2023-04-23T01:25:50;98088.59;;;5.56;82.23
76050;BME280;64967;50.234;19.224;2023-04-23T01:28:17;98079.69;;;5.56;82.92
76050;BME280;64967;50.234;19.224;2023-04-23T01:30:45;98081.44;;;5.49;83.53
76050;BME280;64967;50.234;19.224;2023-04-23T01:33:13;98073.75;;;5.46;83.09
76050;BME280;64967;50.234;19.224;2023-04-23T01:35:42;98078.78;;;5.49;82.80
76050;BME280;64967;50.234;19.224;2023-04-23T01:38:10;98077.38;;;5.53;82.76
76050;BME280;64967;50.234;19.224;2023-04-23T01:40:37;98065.47;;;5.55;82.21
76050;BME280;64967;50.234;19.224;2023-04-23T01:43:05;98080.91;;;5.68;83.01
76050;BME280;64967;50.234;19.224;2023-04-23T01:45:34;98073.06;;;5.66;83.50
76050;BME280;64967;50.234;19.224;2023-04-23T01:48:01;98068.72;;;5.65;83.05
76050;BME280;64967;50.234;19.224;2023-04-23T01:50:29;98073.16;;;5.73;81.70
76050;BME280;64967;50.234;19.224;2023-04-23T01:52:56;98073.16;;;5.73;83.41
76050;BME280;64967;50.234;19.224;2023-04-23T01:55:23;98078.06;;;5.69;83.23
76050;BME280;64967;50.234;19.224;2023-04-23T01:57:50;98072.31;;;5.72;82.88
76050;BME280;64967;50.234;19.224;2023-04-23T02:00:17;98081.03;;;5.74;83.11
76050;BME280;64967;50.234;19.224;2023-04-23T02:02:44;98039.38;;;5.49;83.71
76050;BME280;64967;50.234;19.224;2023-04-23T02:05:14;98071.22;;;5.67;85.51
76050;BME280;64967;50.234;19.224;2023-04-23T02:07:43;98037.50;;;5.35;84.97
76050;BME280;64967;50.234;19.224;2023-04-23T02:10:10;98072.94;;;5.60;84.79
76050;BME280;64967;50.234;19.224;2023-04-23T02:12:38;98068.59;;;5.59;85.29
76050;BME280;64967;50.234;19.224;2023-04-23T02:15:07;98073.50;;;5.55;85.42
76050;BME280;64967;50.234;19.224;2023-04-23T02:17:34;98060.44;;;5.37;87.74
76050;BME280;64967;50.234;19.224;2023-04-23T02:20:01;98060.81;;;5.34;86.58
76050;BME280;64967;50.234;19.224;2023-04-23T02:22:28;98066.88;;;5.28;88.16
76050;BME280;64967;50.234;19.224;2023-04-23T02:24:57;98061.22;;;5.23;89.96
76050;BME280;64967;50.234;19.224;2023-04-23T02:27:25;98067.13;;;5.19;89.67
76050;BME280;64967;50.234;19.224;2023-04-23T02:29:53;98058.97;;;5.12;90.49
76050;BME280;64967;50.234;19.224;2023-04-23T02:32:20;98014.34;;;4.82;89.55
76050;BME280;64967;50.234;19.224;2023-04-23T02:34:47;98062.84;;;5.10;89.51
76050;BME280;64967;50.234;19.224;2023-04-23T02:37:14;98061.00;;;5.10;88.74
76050;BME280;64967;50.234;19.224;2023-04-23T02:39:41;98058.84;;;5.06;89.32
76050;BME280;64967;50.234;19.224;2023-04-23T02:42:08;98057.56;;;5.02;89.49
76050;BME280;64967;50.234;19.224;2023-04-23T02:44:35;98054.50;;;5.05;89.31
76050;BME280;64967;50.234;19.224;2023-04-23T02:47:02;98052.44;;;4.92;87.24
76050;BME280;64967;50.234;19.224;2023-04-23T02:49:29;98056.84;;;4.85;88.09
76050;BME280;64967;50.234;19.224;2023-04-23T02:51:56;98051.56;;;4.77;88.88
76050;BME280;64967;50.234;19.224;2023-04-23T02:54:23;98051.19;;;4.80;89.68
76050;BME280;64967;50.234;19.224;2023-04-23T02:56:50;98053.19;;;4.78;91.22
76050;BME280;64967;50.234;19.224;2023-04-23T02:59:17;98054.03;;;4.78;91.81
76050;BME280;64967;50.234;19.224;2023-04-23T03:01:44;98052.56;;;4.76;91.24
76050;BME280;64967;50.234;19.224;2023-04-23T03:04:11;98050.88;;;4.75;91.39
76050;BME280;64967;50.234;19.224;2023-04-23T03:06:38;98049.94;;;4.68;91.29
76050;BME280;64967;50.234;19.224;2023-04-23T03:09:06;98050.28;;;4.65;90.91
76050;BME280;64967;50.234;19.224;2023-04-23T03:11:33;98052.78;;;4.66;90.26
76050;BME280;64967;50.234;19.224;2023-04-23T03:14:00;98063.66;;;4.65;90.99
76050;BME280;64967;50.234;19.224;2023-04-23T03:16:28;98031.66;;;4.48;90.88
76050;BME280;64967;50.234;19.224;2023-04-23T03:18:56;98053.84;;;4.57;91.39
76050;BME280;64967;50.234;19.224;2023-04-23T03:21:23;98056.69;;;4.56;90.75
76050;BME280;64967;50.234;19.224;2023-04-23T03:23:50;98052.38;;;4.55;90.11
76050;BME280;64967;50.234;19.224;2023-04-23T03:26:17;98046.94;;;4.40;91.92
76050;BME280;64967;50.234;19.224;2023-04-23T03:28:44;98042.47;;;4.24;92.82
76050;BME280;64967;50.234;19.224;2023-04-23T03:31:11;98049.66;;;4.24;94.21
76050;BME280;64967;50.234;19.224;2023-04-23T03:33:38;98051.34;;;4.25;92.87
76050;BME280;64967;50.234;19.224;2023-04-23T03:36:05;98041.88;;;4.14;93.33
76050;BME280;64967;50.234;19.224;2023-04-23T03:38:32;98046.34;;;4.22;94.36
76050;BME280;64967;50.234;19.224;2023-04-23T03:40:59;98035.16;;;4.18;93.52
76050;BME280;64967;50.234;19.224;2023-04-23T03:43:26;98041.13;;;4.28;93.80
76050;BME280;64967;50.234;19.224;2023-04-23T03:45:53;98049.81;;;4.30;93.94
76050;BME280;64967;50.234;19.224;2023-04-23T03:48:20;98042.66;;;4.23;94.93
76050;BME280;64967;50.234;19.224;2023-04-23T03:50:47;98054.16;;;4.31;94.03
76050;BME280;64967;50.234;19.224;2023-04-23T03:53:14;98039.16;;;4.22;93.56
76050;BME280;64967;50.234;19.224;2023-04-23T03:55:43;98057.78;;;4.38;94.01
76050;BME280;64967;50.234;19.224;2023-04-23T03:58:10;98052.13;;;4.33;93.51
76050;BME280;64967;50.234;19.224;2023-04-23T04:00:37;98065.50;;;4.33;94.36
76050;BME280;64967;50.234;19.224;2023-04-23T04:03:04;98061.34;;;4.31;94.26
76050;BME280;64967;50.234;19.224;2023-04-23T04:05:31;98065.34;;;4.35;94.65
76050;BME280;64967;50.234;19.224;2023-04-23T04:07:58;98063.31;;;4.37;95.06
76050;BME280;64967;50.234;19.224;2023-04-23T04:10:25;98057.63;;;4.40;94.55
76050;BME280;64967;50.234;19.224;2023-04-23T04:12:52;98061.47;;;4.45;94.01
76050;BME280;64967;50.234;19.224;2023-04-23T04:15:21;98054.38;;;4.53;94.50
76050;BME280;64967;50.234;19.224;2023-04-23T04:17:48;98063.03;;;4.63;94.18
76050;BME280;64967;50.234;19.224;2023-04-23T04:20:15;98049.81;;;4.61;94.73
76050;BME280;64967;50.234;19.224;2023-04-23T04:22:42;98044.59;;;4.68;94.23
76050;BME280;64967;50.234;19.224;2023-04-23T04:25:09;98062.53;;;4.82;93.87
76050;BME280;64967;50.234;19.224;2023-04-23T04:27:36;98065.19;;;4.90;93.39
76050;BME280;64967;50.234;19.224;2023-04-23T04:30:05;98061.59;;;4.98;92.48
76050;BME280;64967;50.234;19.224;2023-04-23T04:32:32;98064.22;;;5.06;91.41
76050;BME280;64967;50.234;19.224;2023-04-23T04:34:59;98044.53;;;4.99;91.80
76050;BME280;64967;50.234;19.224;2023-04-23T04:37:28;98064.63;;;5.17;92.31
76050;BME280;64967;50.234;19.224;2023-04-23T04:39:55;98060.88;;;5.26;90.54
76050;BME280;64967;50.234;19.224;2023-04-23T04:42:22;98063.09;;;5.37;90.49
76050;BME280;64967;50.234;19.224;2023-04-23T04:44:51;98055.94;;;5.53;90.09
76050;BME280;64967;50.234;19.224;2023-04-23T04:47:18;98062.50;;;5.65;89.52
76050;BME280;64967;50.234;19.224;2023-04-23T04:49:45;98053.66;;;5.79;89.05
76050;BME280;64967;50.234;19.224;2023-04-23T04:52:12;98049.72;;;5.90;88.21
76050;BME280;64967;50.234;19.224;2023-04-23T04:54:39;98065.25;;;6.09;87.67
76050;BME280;64967;50.234;19.224;2023-04-23T04:57:08;98046.72;;;6.14;88.82
76050;BME280;64967;50.234;19.224;2023-04-23T04:59:35;98060.03;;;6.37;87.57
76050;BME280;64967;50.234;19.224;2023-04-23T05:02:02;98068.69;;;6.53;86.41
76050;BME280;64967;50.234;19.224;2023-04-23T05:04:29;98063.28;;;6.68;85.21
76050;BME280;64967;50.234;19.224;2023-04-23T05:06:56;98029.28;;;6.75;85.19
76050;BME280;64967;50.234;19.224;2023-04-23T05:09:24;98068.09;;;7.57;83.87
76050;BME280;64967;50.234;19.224;2023-04-23T05:11:51;98037.66;;;8.26;80.47
76050;BME280;64967;50.234;19.224;2023-04-23T05:14:18;98040.66;;;9.05;77.00
76050;BME280;64967;50.234;19.224;2023-04-23T05:16:45;98057.88;;;9.89;74.57
76050;BME280;64967;50.234;19.224;2023-04-23T05:19:12;98041.94;;;10.52;70.74
76050;BME280;64967;50.234;19.224;2023-04-23T05:21:39;98062.66;;;11.40;68.72
76050;BME280;64967;50.234;19.224;2023-04-23T05:24:06;98054.31;;;12.16;66.85
76050;BME280;64967;50.234;19.224;2023-04-23T05:26:33;98056.13;;;12.77;62.48
76050;BME280;64967;50.234;19.224;2023-04-23T05:29:00;98029.91;;;13.19;59.87
76050;BME280;64967;50.234;19.224;2023-04-23T05:31:27;98051.50;;;13.90;59.50
76050;BME280;64967;50.234;19.224;2023-04-23T05:33:54;98051.50;;;14.37;59.09
76050;BME280;64967;50.234;19.224;2023-04-23T05:36:21;98052.03;;;14.73;56.16
76050;BME280;64967;50.234;19.224;2023-04-23T05:38:48;98050.69;;;15.16;56.05
76050;BME280;64967;50.234;19.224;2023-04-23T05:41:15;98060.63;;;15.67;56.91
76050;BME280;64967;50.234;19.224;2023-04-23T05:43:42;98062.84;;;16.20;52.93
76050;BME280;64967;50.234;19.224;2023-04-23T05:46:09;98044.97;;;16.68;51.68
76050;BME280;64967;50.234;19.224;2023-04-23T05:48:36;98041.00;;;17.02;50.55
76050;BME280;64967;50.234;19.224;2023-04-23T05:51:03;98050.66;;;17.31;47.26
76050;BME280;64967;50.234;19.224;2023-04-23T05:53:31;98043.16;;;17.75;46.60
76050;BME280;64967;50.234;19.224;2023-04-23T05:55:58;98052.88;;;17.93;44.28
76050;BME280;64967;50.234;19.224;2023-04-23T05:58:24;98042.97;;;18.19;43.52
76050;BME280;64967;50.234;19.224;2023-04-23T06:00:52;98038.94;;;18.32;43.62
76050;BME280;64967;50.234;19.224;2023-04-23T06:03:19;98046.53;;;18.66;43.88
76050;BME280;64967;50.234;19.224;2023-04-23T06:05:46;98017.34;;;18.40;41.47
76050;BME280;64967;50.234;19.224;2023-04-23T06:08:14;98048.88;;;19.00;42.25
76050;BME280;64967;50.234;19.224;2023-04-23T06:10:41;98055.53;;;19.29;42.26
76050;BME280;64967;50.234;19.224;2023-04-23T06:13:08;98048.78;;;19.57;41.83
76050;BME280;64967;50.234;19.224;2023-04-23T06:15:37;98047.97;;;19.62;39.97
76050;BME280;64967;50.234;19.224;2023-04-23T06:18:04;98052.34;;;19.83;40.62
76050;BME280;64967;50.234;19.224;2023-04-23T06:20:31;98050.16;;;20.00;38.89
76050;BME280;64967;50.234;19.224;2023-04-23T06:22:58;98028.19;;;20.00;40.91
76050;BME280;64967;50.234;19.224;2023-04-23T06:25:25;98053.16;;;20.29;39.22
76050;BME280;64967;50.234;19.224;2023-04-23T06:27:52;98056.47;;;20.26;38.45
76050;BME280;64967;50.234;19.224;2023-04-23T06:30:19;98052.38;;;19.98;38.50
76050;BME280;64967;50.234;19.224;2023-04-23T06:32:46;98050.19;;;20.30;39.27
76050;BME280;64967;50.234;19.224;2023-04-23T06:35:14;98039.19;;;20.30;37.58
76050;BME280;64967;50.234;19.224;2023-04-23T06:37:41;98013.34;;;20.41;38.50
76050;BME280;64967;50.234;19.224;2023-04-23T06:40:09;98040.22;;;20.49;38.69
76050;BME280;64967;50.234;19.224;2023-04-23T06:42:37;98040.28;;;20.39;39.19
76050;BME280;64967;50.234;19.224;2023-04-23T06:45:05;98046.56;;;20.40;38.41
76050;BME280;64967;50.234;19.224;2023-04-23T06:47:33;98025.03;;;20.82;38.13
76050;BME280;64967;50.234;19.224;2023-04-23T06:50:01;98035.38;;;21.06;37.70
76050;BME280;64967;50.234;19.224;2023-04-23T06:52:29;98025.28;;;21.40;37.20
76050;BME280;64967;50.234;19.224;2023-04-23T06:54:56;98032.88;;;21.58;35.92
76050;BME280;64967;50.234;19.224;2023-04-23T06:57:23;98033.50;;;21.84;35.69
76050;BME280;64967;50.234;19.224;2023-04-23T06:59:50;98021.97;;;21.82;37.13
76050;BME280;64967;50.234;19.224;2023-04-23T07:02:17;98032.47;;;21.75;34.74
76050;BME280;64967;50.234;19.224;2023-04-23T07:04:44;98023.69;;;21.73;36.36
76050;BME280;64967;50.234;19.224;2023-04-23T07:07:12;98036.53;;;21.88;35.05
76050;BME280;64967;50.234;19.224;2023-04-23T07:09:39;98025.75;;;21.91;37.03
76050;BME280;64967;50.234;19.224;2023-04-23T07:12:07;98032.22;;;21.71;35.29
76050;BME280;64967;50.234;19.224;2023-04-23T07:14:34;98029.09;;;21.49;38.42
76050;BME280;64967;50.234;19.224;2023-04-23T07:17:01;98031.13;;;21.33;38.11
76050;BME280;64967;50.234;19.224;2023-04-23T07:19:28;98027.88;;;21.21;36.64
76050;BME280;64967;50.234;19.224;2023-04-23T07:21:55;98023.44;;;21.25;37.85
76050;BME280;64967;50.234;19.224;2023-04-23T07:24:22;98031.78;;;21.10;38.21
76050;BME280;64967;50.234;19.224;2023-04-23T07:26:52;98023.56;;;21.00;36.71
76050;BME280;64967;50.234;19.224;2023-04-23T07:29:19;98033.28;;;20.77;40.96
76050;BME280;64967;50.234;19.224;2023-04-23T07:31:46;98035.28;;;20.57;39.12
76050;BME280;64967;50.234;19.224;2023-04-23T07:34:16;98038.09;;;20.16;37.45
76050;BME280;64967;50.234;19.224;2023-04-23T07:36:43;98024.63;;;20.25;39.32
76050;BME280;64967;50.234;19.224;2023-04-23T07:39:10;98022.16;;;20.18;39.69
76050;BME280;64967;50.234;19.224;2023-04-23T07:41:37;98027.06;;;20.26;40.90
76050;BME280;64967;50.234;19.224;2023-04-23T07:44:05;98031.47;;;20.22;41.12
76050;BME280;64967;50.234;19.224;2023-04-23T07:46:32;98018.28;;;20.44;38.54
76050;BME280;64967;50.234;19.224;2023-04-23T07:48:59;98022.63;;;20.61;38.92
76050;BME280;64967;50.234;19.224;2023-04-23T07:51:26;98019.28;;;20.74;38.77
76050;BME280;64967;50.234;19.224;2023-04-23T07:53:54;98023.97;;;20.68;39.53
76050;BME280;64967;50.234;19.224;2023-04-23T07:56:22;98021.47;;;20.77;39.18
76050;BME280;64967;50.234;19.224;2023-04-23T07:58:50;98018.72;;;20.72;37.83
76050;BME280;64967;50.234;19.224;2023-04-23T08:01:19;98003.88;;;20.78;39.38
76050;BME280;64967;50.234;19.224;2023-04-23T08:03:47;98001.13;;;20.78;38.98
76050;BME280;64967;50.234;19.224;2023-04-23T08:06:14;98003.06;;;20.77;38.34
76050;BME280;64967;50.234;19.224;2023-04-23T08:08:41;98007.66;;;20.92;38.08
76050;BME280;64967;50.234;19.224;2023-04-23T08:11:08;97988.19;;;20.83;36.23
76050;BME280;64967;50.234;19.224;2023-04-23T08:13:36;98005.13;;;21.06;36.52
76050;BME280;64967;50.234;19.224;2023-04-23T08:16:03;97995.84;;;20.97;37.03
76050;BME280;64967;50.234;19.224;2023-04-23T08:18:31;97980.72;;;20.94;37.28
76050;BME280;64967;50.234;19.224;2023-04-23T08:20:58;97992.13;;;21.21;36.76
76050;BME280;64967;50.234;19.224;2023-04-23T08:23:25;97996.50;;;21.27;35.75
76050;BME280;64967;50.234;19.224;2023-04-23T08:25:52;97989.44;;;21.16;36.45
76050;BME280;64967;50.234;19.224;2023-04-23T08:28:19;97984.47;;;21.18;37.46
76050;BME280;64967;50.234;19.224;2023-04-23T08:30:46;97992.72;;;21.08;35.69
76050;BME280;64967;50.234;19.224;2023-04-23T08:33:13;97996.06;;;21.05;35.38
76050;BME280;64967;50.234;19.224;2023-04-23T08:35:40;97982.88;;;21.02;36.27
76050;BME280;64967;50.234;19.224;2023-04-23T08:38:07;97979.84;;;20.99;36.49
76050;BME280;64967;50.234;19.224;2023-04-23T08:40:36;97992.75;;;21.13;36.85
76050;BME280;64967;50.234;19.224;2023-04-23T08:43:15;97993.00;;;21.12;37.20
76050;BME280;64967;50.234;19.224;2023-04-23T08:45:46;97970.19;;;21.16;34.71
76050;BME280;64967;50.234;19.224;2023-04-23T08:48:13;97977.50;;;21.31;35.78
76050;BME280;64967;50.234;19.224;2023-04-23T08:50:42;97984.84;;;21.46;36.56
76050;BME280;64967;50.234;19.224;2023-04-23T08:53:09;97960.06;;;21.02;35.22
76050;BME280;64967;50.234;19.224;2023-04-23T08:55:36;97978.03;;;21.38;34.61
76050;BME280;64967;50.234;19.224;2023-04-23T08:58:04;97969.16;;;21.46;34.84
76050;BME280;64967;50.234;19.224;2023-04-23T09:00:32;97964.94;;;21.20;34.82
76050;BME280;64967;50.234;19.224;2023-04-23T09:03:02;97970.34;;;21.30;34.68
76050;BME280;64967;50.234;19.224;2023-04-23T09:05:31;97955.50;;;21.31;31.78
76050;BME280;64967;50.234;19.224;2023-04-23T09:07:58;97958.22;;;21.36;33.90
76050;BME280;64967;50.234;19.224;2023-04-23T09:10:25;97945.28;;;21.36;33.31
76050;BME280;64967;50.234;19.224;2023-04-23T09:12:52;97960.03;;;21.51;31.11
76050;BME280;64967;50.234;19.224;2023-04-23T09:15:19;97968.31;;;21.46;31.06
76050;BME280;64967;50.234;19.224;2023-04-23T09:17:46;97955.69;;;21.45;32.16
76050;BME280;64967;50.234;19.224;2023-04-23T09:20:14;97943.00;;;21.49;32.62
76050;BME280;64967;50.234;19.224;2023-04-23T09:22:50;97967.56;;;21.74;32.35
76050;BME280;64967;50.234;19.224;2023-04-23T09:25:20;97956.81;;;21.72;34.53
76050;BME280;64967;50.234;19.224;2023-04-23T09:27:49;97946.56;;;21.83;31.95
76050;BME280;64967;50.234;19.224;2023-04-23T09:30:17;97935.56;;;21.83;32.93
76050;BME280;64967;50.234;19.224;2023-04-23T09:32:45;97947.44;;;21.78;31.08
76050;BME280;64967;50.234;19.224;2023-04-23T09:35:14;97934.72;;;21.83;34.94
76050;BME280;64967;50.234;19.224;2023-04-23T09:37:43;97938.22;;;21.93;31.86
76050;BME280;64967;50.234;19.224;2023-04-23T09:40:17;97939.81;;;21.99;33.08
76050;BME280;64967;50.234;19.224;2023-04-23T09:42:48;97935.91;;;22.05;32.01
76050;BME280;64967;50.234;19.224;2023-04-23T09:45:15;97930.41;;;22.05;32.42
76050;BME280;64967;50.234;19.224;2023-04-23T09:50:31;97934.56;;;22.27;30.55
76050;BME280;64967;50.234;19.224;2023-04-23T09:52:58;97921.22;;;22.15;32.38
76050;BME280;64967;50.234;19.224;2023-04-23T09:55:27;97921.50;;;22.13;30.91
76050;BME280;64967;50.234;19.224;2023-04-23T09:57:57;97921.34;;;22.29;30.29
76050;BME280;64967;50.234;19.224;2023-04-23T10:00:24;97891.22;;;22.13;28.93
76050;BME280;64967;50.234;19.224;2023-04-23T10:02:54;97917.59;;;22.19;29.17
76050;BME280;64967;50.234;19.224;2023-04-23T10:05:22;97917.44;;;22.30;27.96
76050;BME280;64967;50.234;19.224;2023-04-23T10:08:04;97886.03;;;22.31;28.75
76050;BME280;64967;50.234;19.224;2023-04-23T10:10:33;97906.69;;;22.52;30.29
76050;BME280;64967;50.234;19.224;2023-04-23T10:13:17;97905.47;;;22.63;29.90
76050;BME280;64967;50.234;19.224;2023-04-23T10:15:46;97905.06;;;22.75;29.09
76050;BME280;64967;50.234;19.224;2023-04-23T10:18:13;97895.16;;;22.50;31.09
76050;BME280;64967;50.234;19.224;2023-04-23T10:20:41;97899.94;;;22.63;28.82
76050;BME280;64967;50.234;19.224;2023-04-23T10:23:10;97898.97;;;22.78;29.97
76050;BME280;64967;50.234;19.224;2023-04-23T10:25:39;97883.97;;;22.84;29.86
76050;BME280;64967;50.234;19.224;2023-04-23T10:28:09;97899.41;;;23.03;30.10
76050;BME280;64967;50.234;19.224;2023-04-23T10:30:37;97882.72;;;22.76;28.57
76050;BME280;64967;50.234;19.224;2023-04-23T10:33:06;97874.97;;;22.78;27.56
76050;BME280;64967;50.234;19.224;2023-04-23T10:35:44;97875.19;;;22.82;27.79
76050;BME280;64967;50.234;19.224;2023-04-23T10:38:14;97871.22;;;22.88;29.35
76050;BME280;64967;50.234;19.224;2023-04-23T10:40:44;97874.38;;;22.81;28.53
76050;BME280;64967;50.234;19.224;2023-04-23T10:43:12;97868.13;;;22.94;27.09
76050;BME280;64967;50.234;19.224;2023-04-23T10:45:39;97863.50;;;23.08;30.05
76050;BME280;64967;50.234;19.224;2023-04-23T10:48:07;97860.34;;;23.15;28.43
76050;BME280;64967;50.234;19.224;2023-04-23T10:50:35;97861.56;;;23.09;27.23
76050;BME280;64967;50.234;19.224;2023-04-23T10:53:04;97870.31;;;23.11;30.28
76050;BME280;64967;50.234;19.224;2023-04-23T10:55:31;97870.91;;;23.27;30.37
76050;BME280;64967;50.234;19.224;2023-04-23T10:58:05;97860.66;;;23.13;27.75
76050;BME280;64967;50.234;19.224;2023-04-23T11:00:44;97869.44;;;22.97;28.03
76050;BME280;64967;50.234;19.224;2023-04-23T11:06:02;97857.28;;;23.17;26.60
76050;BME280;64967;50.234;19.224;2023-04-23T11:08:30;97855.75;;;22.92;26.61
76050;BME280;64967;50.234;19.224;2023-04-23T11:11:01;97850.00;;;22.69;27.54
76050;BME280;64967;50.234;19.224;2023-04-23T11:13:29;97850.00;;;22.88;27.22
76050;BME280;64967;50.234;19.224;2023-04-23T11:16:20;97858.13;;;22.98;28.08
76050;BME280;64967;50.234;19.224;2023-04-23T11:19:08;97856.75;;;23.14;27.70
76050;BME280;64967;50.234;19.224;2023-04-23T11:21:57;97859.22;;;23.16;27.87
76050;BME280;64967;50.234;19.224;2023-04-23T11:24:28;97844.53;;;23.21;27.78
76050;BME280;64967;50.234;19.224;2023-04-23T11:26:57;97821.72;;;23.15;26.15
76050;BME280;64967;50.234;19.224;2023-04-23T11:29:26;97839.16;;;23.10;26.70
76050;BME280;64967;50.234;19.224;2023-04-23T11:31:54;97835.31;;;23.11;28.07
76050;BME280;64967;50.234;19.224;2023-04-23T11:34:24;97822.19;;;23.03;26.62
76050;BME280;64967;50.234;19.224;2023-04-23T11:36:52;97837.91;;;23.22;25.11
76050;BME280;64967;50.234;19.224;2023-04-23T11:39:21;97842.72;;;23.30;29.10
76050;BME280;64967;50.234;19.224;2023-04-23T11:41:52;97844.88;;;23.33;28.20
76050;BME280;64967;50.234;19.224;2023-04-23T11:44:20;97848.69;;;23.37;28.01
76050;BME280;64967;50.234;19.224;2023-04-23T11:46:48;97840.09;;;23.38;27.94
76050;BME280;64967;50.234;19.224;2023-04-23T11:49:16;97840.22;;;23.14;29.21
76050;BME280;64967;50.234;19.224;2023-04-23T11:51:45;97834.59;;;22.87;27.67
76050;BME280;64967;50.234;19.224;2023-04-23T11:54:12;97831.91;;;22.82;27.15
76050;BME280;64967;50.234;19.224;2023-04-23T11:56:40;97832.69;;;23.01;30.11
76050;BME280;64967;50.234;19.224;2023-04-23T11:59:08;97832.34;;;22.89;28.95
76050;BME280;64967;50.234;19.224;2023-04-23T12:01:46;97822.88;;;22.95;28.60
76050;BME280;64967;50.234;19.224;2023-04-23T12:04:18;97822.66;;;23.24;27.66
76050;BME280;64967;50.234;19.224;2023-04-23T12:06:47;97830.03;;;22.59;25.24
76050;BME280;64967;50.234;19.224;2023-04-23T12:09:15;97819.81;;;22.41;27.23
76050;BME280;64967;50.234;19.224;2023-04-23T12:11:44;97816.34;;;22.73;30.64
76050;BME280;64967;50.234;19.224;2023-04-23T12:14:13;97819.25;;;22.81;27.71
76050;BME280;64967;50.234;19.224;2023-04-23T12:16:42;97817.63;;;23.12;28.52
76050;BME280;64967;50.234;19.224;2023-04-23T12:21:51;97807.88;;;23.34;29.50
76050;BME280;64967;50.234;19.224;2023-04-23T12:24:27;97808.59;;;23.26;28.22
76050;BME280;64967;50.234;19.224;2023-04-23T12:26:59;97812.47;;;23.25;28.16
76050;BME280;64967;50.234;19.224;2023-04-23T12:29:29;97806.69;;;23.07;27.60
76050;BME280;64967;50.234;19.224;2023-04-23T12:31:58;97800.94;;;23.23;28.08
76050;BME280;64967;50.234;19.224;2023-04-23T12:34:26;97801.94;;;23.45;26.42
76050;BME280;64967;50.234;19.224;2023-04-23T12:36:54;97773.03;;;23.38;30.57
76050;BME280;64967;50.234;19.224;2023-04-23T12:39:30;97797.38;;;23.36;28.83
76050;BME280;64967;50.234;19.224;2023-04-23T12:44:34;97793.78;;;23.54;27.89
76050;BME280;64967;50.234;19.224;2023-04-23T12:47:06;97782.75;;;23.68;27.95
76050;BME280;64967;50.234;19.224;2023-04-23T12:49:35;97790.13;;;23.40;26.92
76050;BME280;64967;50.234;19.224;2023-04-23T12:52:03;97785.66;;;23.44;27.96
76050;BME280;64967;50.234;19.224;2023-04-23T12:54:38;97783.06;;;23.34;27.41
76050;BME280;64967;50.234;19.224;2023-04-23T12:57:09;97774.97;;;23.37;28.30
76050;BME280;64967;50.234;19.224;2023-04-23T12:59:37;97781.72;;;23.31;28.19
76050;BME280;64967;50.234;19.224;2023-04-23T13:02:05;97781.38;;;23.05;29.70
76050;BME280;64967;50.234;19.224;2023-04-23T13:04:35;97792.19;;;23.16;28.50
76050;BME280;64967;50.234;19.224;2023-04-23T13:07:02;97778.44;;;22.97;29.07
76050;BME280;64967;50.234;19.224;2023-04-23T13:12:11;97780.34;;;22.45;27.41
76050;BME280;64967;50.234;19.224;2023-04-23T13:14:38;97769.47;;;22.54;28.21
76050;BME280;64967;50.234;19.224;2023-04-23T13:17:06;97772.38;;;22.44;28.08